Time;durP1;ratioP1;P1;durP2;ratioP2;P2;SDS_P1;SDS_P2;PMS_P1;PMS_P2;Temp;Humidity;BMP_temperature;BMP_pressure;BME280_temperature;BME280_humidity;BME280_pressure;Samples;Min_cycle;Max_cycle;Signal;HPM_P1;HPM_P2
2022/04/13 00:01:18;;;;;;;12.57;7.50;;;;;;;;;;5078303;28;20043;-63
2022/04/13 00:03:46;;;;;;;12.30;7.38;;;;;;;;;;5102699;28;20487;-64
2022/04/13 00:06:15;;;;;;;15.02;8.32;;;;;;;;;;5064582;28;20044;-65
2022/04/13 00:08:43;;;;;;;10.73;7.28;;;;;;;;;;5073472;28;20087;-64
2022/04/13 00:11:09;;;;;;;12.60;7.25;;;;;;;;;;5072183;28;20059;-64
2022/04/13 00:13:35;;;;;;;16.33;8.57;;;;;;;;;;5057902;28;20382;-64
2022/04/13 00:16:01;;;;;;;13.13;8.70;;;;;;;;;;5076296;28;20090;-63
2022/04/13 00:18:27;;;;;;;16.08;8.23;;;;;;;;;;5093786;28;20047;-64
2022/04/13 00:20:53;;;;;;;11.77;8.15;;;;;;;;;;5091487;28;20177;-64
2022/04/13 00:23:19;;;;;;;15.45;8.80;;;;;;;;;;5050117;28;20104;-63
2022/04/13 00:25:47;;;;;;;20.65;9.65;;;;;;;;;;5104054;28;20555;-63
2022/04/13 00:28:14;;;;;;;16.60;8.85;;;;;;;;;;5067818;28;20499;-64
2022/04/13 00:30:40;;;;;;;16.05;9.32;;;;;;;;;;5087072;28;20058;-64
2022/04/13 00:33:08;;;;;;;18.02;9.35;;;;;;;;;;5072524;28;20500;-63
2022/04/13 00:35:34;;;;;;;17.73;9.57;;;;;;;;;;5086849;28;20044;-64
2022/04/13 00:38:00;;;;;;;18.08;10.00;;;;;;;;;;5068657;28;20050;-63
2022/04/13 00:40:29;;;;;;;17.40;9.98;;;;;;;;;;5067038;28;20063;-63
2022/04/13 00:42:55;;;;;;;23.48;12.52;;;;;;;;;;5058389;28;20048;-64
2022/04/13 00:45:21;;;;;;;16.15;10.25;;;;;;;;;;5106379;28;20392;-63
2022/04/13 00:47:47;;;;;;;22.23;11.18;;;;;;;;;;5096216;28;20040;-63
2022/04/13 00:50:14;;;;;;;18.10;10.50;;;;;;;;;;5093931;28;20063;-63
2022/04/13 00:52:46;;;;;;;22.75;11.75;;;;;;;;;;5087474;28;20048;-63
2022/04/13 00:55:14;;;;;;;23.77;12.80;;;;;;;;;;5055395;28;20059;-64
2022/04/13 00:57:40;;;;;;;22.42;10.82;;;;;;;;;;5089764;28;20051;-63
2022/04/13 01:00:09;;;;;;;21.00;11.60;;;;;;;;;;5069148;28;20041;-63
2022/04/13 01:02:37;;;;;;;24.70;11.27;;;;;;;;;;5082623;28;20486;-63
2022/04/13 01:05:03;;;;;;;20.73;11.57;;;;;;;;;;5052268;28;20433;-64
2022/04/13 01:07:30;;;;;;;27.73;13.68;;;;;;;;;;5096013;28;20113;-63
2022/04/13 01:09:56;;;;;;;25.27;13.32;;;;;;;;;;5063441;28;20052;-63
2022/04/13 01:12:22;;;;;;;25.40;13.10;;;;;;;;;;5083602;28;20074;-63
2022/04/13 01:14:49;;;;;;;22.48;12.68;;;;;;;;;;5089504;28;20048;-64
2022/04/13 01:17:15;;;;;;;21.70;12.18;;;;;;;;;;5106080;28;20054;-63
2022/04/13 01:19:41;;;;;;;23.85;12.68;;;;;;;;;;5101609;28;20051;-63
2022/04/13 01:22:15;;;;;;;22.38;11.98;;;;;;;;;;5094059;28;20519;-63
2022/04/13 01:24:41;;;;;;;19.85;11.85;;;;;;;;;;5081562;28;20122;-63
2022/04/13 01:27:07;;;;;;;18.63;12.05;;;;;;;;;;5109070;28;20632;-63
2022/04/13 01:29:33;;;;;;;20.58;11.45;;;;;;;;;;5084542;28;20048;-64
2022/04/13 01:32:02;;;;;;;21.17;11.60;;;;;;;;;;5072724;28;20058;-63
2022/04/13 01:34:28;;;;;;;19.70;11.25;;;;;;;;;;5073088;28;20500;-64
2022/04/13 01:36:54;;;;;;;19.70;11.48;;;;;;;;;;5086745;28;20044;-63
2022/04/13 01:39:20;;;;;;;21.38;11.88;;;;;;;;;;5090615;28;20063;-63
2022/04/13 01:41:48;;;;;;;19.00;10.50;;;;;;;;;;5069115;28;20058;-63
2022/04/13 01:44:15;;;;;;;23.45;11.38;;;;;;;;;;5067149;28;20048;-64
2022/04/13 01:46:41;;;;;;;21.90;11.68;;;;;;;;;;5097031;28;20043;-63
2022/04/13 01:49:07;;;;;;;17.65;11.18;;;;;;;;;;5084924;28;20044;-64
2022/04/13 01:51:36;;;;;;;19.08;11.45;;;;;;;;;;5076803;28;20047;-63
2022/04/13 01:54:02;;;;;;;18.38;11.02;;;;;;;;;;5057971;28;20484;-63
2022/04/13 01:56:28;;;;;;;19.52;11.50;;;;;;;;;;5056944;28;20040;-63
2022/04/13 01:58:54;;;;;;;25.25;12.30;;;;;;;;;;5050182;28;20051;-63
2022/04/13 02:01:20;;;;;;;24.40;12.30;;;;;;;;;;5063717;28;20403;-65
2022/04/13 02:03:46;;;;;;;21.67;12.10;;;;;;;;;;5092124;28;20605;-63
2022/04/13 02:06:14;;;;;;;22.45;12.82;;;;;;;;;;5092292;28;20432;-65
2022/04/13 02:08:41;;;;;;;25.65;13.73;;;;;;;;;;5059597;28;20052;-64
2022/04/13 02:11:07;;;;;;;24.65;14.07;;;;;;;;;;5058942;28;20127;-64
2022/04/13 02:13:36;;;;;;;30.23;14.95;;;;;;;;;;5082751;28;20049;-64
2022/04/13 02:16:02;;;;;;;23.95;14.13;;;;;;;;;;5083521;28;20091;-64
2022/04/13 02:18:31;;;;;;;29.88;14.35;;;;;;;;;;5090960;28;20433;-64
2022/04/13 02:20:57;;;;;;;25.88;14.02;;;;;;;;;;5076046;28;20426;-63
2022/04/13 02:23:26;;;;;;;26.83;13.73;;;;;;;;;;5096753;28;20039;-64
2022/04/13 02:25:52;;;;;;;24.33;13.25;;;;;;;;;;5064096;28;20043;-64
2022/04/13 02:28:18;;;;;;;21.77;11.68;;;;;;;;;;5099027;28;20070;-64
2022/04/13 02:30:44;;;;;;;22.85;11.93;;;;;;;;;;5089659;28;20052;-65
2022/04/13 02:33:10;;;;;;;23.42;11.73;;;;;;;;;;5040838;28;20063;-64
2022/04/13 02:35:36;;;;;;;23.85;12.13;;;;;;;;;;5089246;28;20404;-64
2022/04/13 02:38:02;;;;;;;24.25;12.02;;;;;;;;;;5082069;28;20058;-64
2022/04/13 02:40:29;;;;;;;22.45;12.15;;;;;;;;;;5070111;28;20056;-64
2022/04/13 02:42:55;;;;;;;21.70;12.35;;;;;;;;;;5083399;28;20051;-63
2022/04/13 02:45:21;;;;;;;20.23;11.60;;;;;;;;;;5092413;28;20043;-63
2022/04/13 02:47:47;;;;;;;20.00;11.88;;;;;;;;;;5088383;28;20044;-64
2022/04/13 02:50:16;;;;;;;23.52;12.65;;;;;;;;;;5092216;28;20109;-64
2022/04/13 02:52:42;;;;;;;23.73;12.10;;;;;;;;;;5075281;28;20044;-64
2022/04/13 02:55:12;;;;;;;22.55;11.88;;;;;;;;;;5091850;28;20550;-64
2022/04/13 02:57:41;;;;;;;19.80;11.65;;;;;;;;;;5059211;28;20084;-64
2022/04/13 03:00:10;;;;;;;20.38;12.75;;;;;;;;;;5057700;28;20054;-63
2022/04/13 03:02:39;;;;;;;22.20;12.38;;;;;;;;;;5046849;28;20145;-64
2022/04/13 03:05:06;;;;;;;20.35;11.73;;;;;;;;;;5073083;28;20047;-64
2022/04/13 03:07:34;;;;;;;22.67;13.07;;;;;;;;;;5108871;28;20123;-63
2022/04/13 03:10:00;;;;;;;26.08;12.38;;;;;;;;;;5063549;28;20499;-64
2022/04/13 03:12:26;;;;;;;23.17;12.82;;;;;;;;;;5094938;28;20046;-63
2022/04/13 03:14:55;;;;;;;23.75;12.60;;;;;;;;;;5072580;28;20094;-63
2022/04/13 03:17:21;;;;;;;26.05;12.80;;;;;;;;;;5057312;28;20044;-63
2022/04/13 03:19:49;;;;;;;24.85;13.75;;;;;;;;;;5090919;28;20510;-63
2022/04/13 03:22:17;;;;;;;25.50;12.82;;;;;;;;;;5075067;28;20048;-63
2022/04/13 03:24:43;;;;;;;22.27;12.50;;;;;;;;;;5056493;28;20437;-65
2022/04/13 03:27:09;;;;;;;21.17;12.13;;;;;;;;;;5092929;28;20376;-63
2022/04/13 03:29:35;;;;;;;24.35;14.32;;;;;;;;;;5081772;28;20051;-64
2022/04/13 03:32:01;;;;;;;23.92;14.15;;;;;;;;;;5089440;28;20051;-64
2022/04/13 03:34:29;;;;;;;25.73;14.02;;;;;;;;;;5090497;28;20055;-63
2022/04/13 03:36:58;;;;;;;29.55;14.05;;;;;;;;;;5087468;28;20437;-64
2022/04/13 03:39:27;;;;;;;33.58;15.73;;;;;;;;;;5076734;28;20055;-64
2022/04/13 03:41:53;;;;;;;27.15;15.40;;;;;;;;;;5074343;28;20039;-63
2022/04/13 03:44:19;;;;;;;28.27;15.75;;;;;;;;;;5059425;28;20399;-64
2022/04/13 03:46:45;;;;;;;28.10;15.13;;;;;;;;;;5083335;28;20450;-63
2022/04/13 03:49:11;;;;;;;27.75;16.17;;;;;;;;;;5084240;28;20044;-64
2022/04/13 03:51:37;;;;;;;26.83;16.15;;;;;;;;;;5090960;28;20095;-64
2022/04/13 03:54:04;;;;;;;26.35;17.23;;;;;;;;;;5085790;28;20473;-63
2022/04/13 03:56:30;;;;;;;27.92;16.63;;;;;;;;;;5051999;28;20048;-63
2022/04/13 03:59:05;;;;;;;25.55;17.38;;;;;;;;;;5056974;28;20044;-64
2022/04/13 04:01:31;;;;;;;30.23;17.52;;;;;;;;;;5066985;28;20098;-64
2022/04/13 04:03:57;;;;;;;29.30;16.92;;;;;;;;;;5064218;28;20439;-65
2022/04/13 04:06:24;;;;;;;26.90;16.58;;;;;;;;;;5089051;28;20077;-65
2022/04/13 04:08:50;;;;;;;27.98;16.30;;;;;;;;;;5089752;28;20051;-64
2022/04/13 04:11:18;;;;;;;28.73;17.08;;;;;;;;;;5069581;28;20079;-63
2022/04/13 04:13:44;;;;;;;30.88;18.33;;;;;;;;;;5093204;28;20043;-64
2022/04/13 04:16:13;;;;;;;31.17;17.55;;;;;;;;;;5078249;28;20051;-64
2022/04/13 04:18:39;;;;;;;34.35;18.15;;;;;;;;;;5059925;28;20062;-64
2022/04/13 04:21:05;;;;;;;31.65;18.23;;;;;;;;;;5100542;28;20039;-64
2022/04/13 04:23:31;;;;;;;35.53;18.20;;;;;;;;;;5110027;28;20063;-64
2022/04/13 04:25:57;;;;;;;30.92;18.67;;;;;;;;;;5102888;28;20583;-64
2022/04/13 04:28:23;;;;;;;28.73;17.85;;;;;;;;;;5108039;22;20055;-64
2022/04/13 04:30:49;;;;;;;36.83;19.08;;;;;;;;;;5095263;28;20056;-64
2022/04/13 04:33:16;;;;;;;26.80;18.50;;;;;;;;;;5083950;28;20067;-64
2022/04/13 04:35:46;;;;;;;35.40;20.45;;;;;;;;;;5098130;28;20051;-64
2022/04/13 04:38:13;;;;;;;28.20;19.05;;;;;;;;;;5110398;28;20492;-63
2022/04/13 04:40:40;;;;;;;32.67;19.50;;;;;;;;;;5095638;28;20059;-64
2022/04/13 04:43:08;;;;;;;38.10;20.13;;;;;;;;;;5096080;28;20063;-64
2022/04/13 04:45:34;;;;;;;36.05;19.85;;;;;;;;;;5044393;28;20076;-63
2022/04/13 04:48:04;;;;;;;35.60;19.70;;;;;;;;;;5075599;28;20083;-64
2022/04/13 04:50:31;;;;;;;36.30;20.25;;;;;;;;;;5041240;28;20052;-64
2022/04/13 04:52:57;;;;;;;34.80;19.60;;;;;;;;;;5041506;28;20049;-63
2022/04/13 04:55:23;;;;;;;34.45;20.77;;;;;;;;;;5095695;28;20044;-63
2022/04/13 04:57:50;;;;;;;33.90;20.35;;;;;;;;;;5062538;28;20083;-63
2022/04/13 05:00:20;;;;;;;33.08;19.67;;;;;;;;;;5077762;28;20056;-64
2022/04/13 05:02:49;;;;;;;35.75;19.38;;;;;;;;;;5109056;28;20043;-64
2022/04/13 05:05:15;;;;;;;32.42;20.23;;;;;;;;;;5111647;28;20086;-63
2022/04/13 05:07:42;;;;;;;43.35;20.65;;;;;;;;;;5097865;28;20051;-64
2022/04/13 05:10:08;;;;;;;39.33;20.00;;;;;;;;;;5113139;28;20059;-63
2022/04/13 05:12:44;;;;;;;30.95;19.13;;;;;;;;;;5078343;28;20044;-64
2022/04/13 05:15:10;;;;;;;37.00;20.23;;;;;;;;;;5066459;28;20087;-63
2022/04/13 05:17:37;;;;;;;31.10;18.40;;;;;;;;;;5094062;28;20048;-64
2022/04/13 05:20:04;;;;;;;36.75;19.70;;;;;;;;;;5095466;28;20118;-63
2022/04/13 05:22:30;;;;;;;41.03;18.98;;;;;;;;;;5060946;28;20055;-63
2022/04/13 05:24:58;;;;;;;32.55;21.17;;;;;;;;;;5093666;28;20503;-63
2022/04/13 05:27:24;;;;;;;37.70;19.80;;;;;;;;;;5077140;28;20400;-64
2022/04/13 05:29:50;;;;;;;34.55;18.80;;;;;;;;;;5094272;28;20052;-63
2022/04/13 05:32:16;;;;;;;36.33;20.75;;;;;;;;;;5095002;28;20110;-63
2022/04/13 05:34:42;;;;;;;34.67;18.50;;;;;;;;;;5105315;28;20040;-64
2022/04/13 05:37:08;;;;;;;33.58;18.77;;;;;;;;;;5115249;28;20426;-63
2022/04/13 05:39:37;;;;;;;35.35;21.15;;;;;;;;;;5115434;28;20039;-63
2022/04/13 05:42:04;;;;;;;33.70;19.20;;;;;;;;;;5113014;28;20047;-63
2022/04/13 05:44:30;;;;;;;35.50;18.80;;;;;;;;;;5097292;28;20047;-63
2022/04/13 05:46:56;;;;;;;30.40;19.02;;;;;;;;;;5093375;28;20067;-63
2022/04/13 05:49:22;;;;;;;30.77;18.25;;;;;;;;;;5094965;28;20495;-63
2022/04/13 05:51:48;;;;;;;27.88;17.15;;;;;;;;;;5094775;28;20044;-63
2022/04/13 05:54:16;;;;;;;36.72;18.90;;;;;;;;;;5095828;28;20050;-63
2022/04/13 05:56:42;;;;;;;28.35;17.58;;;;;;;;;;5093631;28;20123;-63
2022/04/13 05:59:08;;;;;;;36.15;19.00;;;;;;;;;;5085985;28;20400;-63
2022/04/13 06:01:34;;;;;;;30.95;17.95;;;;;;;;;;5094754;28;20048;-64
2022/04/13 06:04:00;;;;;;;29.10;18.55;;;;;;;;;;5079793;28;20043;-63
2022/04/13 06:06:28;;;;;;;33.05;18.67;;;;;;;;;;5113509;28;20080;-63
2022/04/13 06:08:54;;;;;;;31.65;18.58;;;;;;;;;;5093270;28;20050;-63
2022/04/13 06:11:22;;;;;;;29.67;16.77;;;;;;;;;;5094257;28;20040;-64
2022/04/13 06:13:48;;;;;;;31.63;18.73;;;;;;;;;;5079664;28;20118;-63
2022/04/13 06:16:14;;;;;;;29.67;17.35;;;;;;;;;;5056258;28;20483;-65
2022/04/13 06:18:40;;;;;;;30.38;16.73;;;;;;;;;;5079011;28;20403;-63
2022/04/13 06:21:08;;;;;;;32.67;18.13;;;;;;;;;;5094174;28;20040;-63
2022/04/13 06:23:34;;;;;;;31.35;16.95;;;;;;;;;;5094277;28;20475;-63
2022/04/13 06:26:00;;;;;;;27.65;17.98;;;;;;;;;;5075113;28;20075;-64
2022/04/13 06:28:26;;;;;;;26.95;16.92;;;;;;;;;;5096867;28;20454;-63
2022/04/13 06:30:52;;;;;;;25.60;15.82;;;;;;;;;;5094155;28;20458;-63
2022/04/13 06:33:18;;;;;;;28.75;16.27;;;;;;;;;;5094250;28;20059;-63
2022/04/13 06:35:45;;;;;;;27.85;15.77;;;;;;;;;;5092992;28;20055;-63
2022/04/13 06:38:11;;;;;;;25.17;15.52;;;;;;;;;;5097469;28;20044;-64
2022/04/13 06:40:37;;;;;;;30.00;16.02;;;;;;;;;;5086763;28;20048;-62
2022/04/13 06:43:03;;;;;;;27.67;13.77;;;;;;;;;;5075410;28;20129;-63
2022/04/13 06:45:29;;;;;;;26.67;14.98;;;;;;;;;;5093877;28;20051;-63
2022/04/13 06:47:55;;;;;;;28.02;14.70;;;;;;;;;;5092151;28;20037;-63
2022/04/13 06:50:21;;;;;;;26.63;14.77;;;;;;;;;;5093706;28;20056;-64
2022/04/13 06:52:47;;;;;;;23.20;14.20;;;;;;;;;;5092965;28;20040;-63
2022/04/13 06:55:16;;;;;;;26.52;15.35;;;;;;;;;;5075501;28;20131;-63
2022/04/13 06:57:42;;;;;;;25.52;14.88;;;;;;;;;;5068331;28;20055;-63
2022/04/13 07:00:09;;;;;;;32.00;15.00;;;;;;;;;;5113944;28;20096;-63
2022/04/13 07:02:36;;;;;;;21.38;13.00;;;;;;;;;;5095685;28;20050;-63
2022/04/13 07:05:02;;;;;;;22.33;12.95;;;;;;;;;;5095740;28;20055;-63
2022/04/13 07:07:28;;;;;;;19.90;12.60;;;;;;;;;;5077515;28;20075;-63
2022/04/13 07:09:54;;;;;;;23.08;12.80;;;;;;;;;;5095295;28;20048;-64
2022/04/13 07:12:20;;;;;;;20.25;10.57;;;;;;;;;;5094536;28;20075;-63
2022/04/13 07:14:46;;;;;;;20.58;11.73;;;;;;;;;;5090397;28;20377;-63
2022/04/13 07:17:12;;;;;;;17.27;11.60;;;;;;;;;;5092051;28;20040;-63
2022/04/13 07:19:38;;;;;;;20.08;11.32;;;;;;;;;;5092636;28;20036;-63
2022/04/13 07:22:05;;;;;;;20.83;10.98;;;;;;;;;;5079354;28;20087;-63
2022/04/13 07:24:31;;;;;;;21.23;11.95;;;;;;;;;;5062282;28;20134;-64
2022/04/13 07:26:57;;;;;;;19.33;11.90;;;;;;;;;;5092855;28;20038;-63
2022/04/13 07:29:23;;;;;;;16.00;10.07;;;;;;;;;;5113300;28;20056;-64
2022/04/13 07:31:51;;;;;;;18.80;11.23;;;;;;;;;;5095374;28;20047;-63
2022/04/13 07:34:17;;;;;;;24.23;10.40;;;;;;;;;;5095327;28;20058;-63
2022/04/13 07:36:43;;;;;;;15.52;10.10;;;;;;;;;;5087571;28;20047;-64
2022/04/13 07:39:09;;;;;;;18.17;10.02;;;;;;;;;;5084842;28;20036;-63
2022/04/13 07:41:35;;;;;;;17.88;9.50;;;;;;;;;;5097923;28;20472;-62
2022/04/13 07:44:01;;;;;;;17.60;9.75;;;;;;;;;;5091790;28;20051;-62
2022/04/13 07:46:29;;;;;;;12.52;8.00;;;;;;;;;;5092662;28;20549;-62
2022/04/13 07:48:55;;;;;;;18.63;8.23;;;;;;;;;;5091564;28;20048;-63
2022/04/13 07:51:21;;;;;;;13.65;8.73;;;;;;;;;;5092569;28;20051;-62
2022/04/13 07:53:47;;;;;;;14.38;7.88;;;;;;;;;;5091204;28;20044;-63
2022/04/13 07:56:13;;;;;;;15.77;8.65;;;;;;;;;;5111846;28;20507;-62
2022/04/13 07:58:39;;;;;;;15.00;7.93;;;;;;;;;;5112892;28;20055;-63
2022/04/13 08:01:05;;;;;;;16.65;8.23;;;;;;;;;;5113296;28;20099;-63
2022/04/13 08:03:34;;;;;;;15.75;8.70;;;;;;;;;;5112823;28;20403;-62
2022/04/13 08:06:00;;;;;;;14.68;8.65;;;;;;;;;;5112910;28;20055;-63
2022/04/13 08:08:26;;;;;;;13.05;8.02;;;;;;;;;;5077784;28;20039;-63
2022/04/13 08:10:52;;;;;;;17.35;8.10;;;;;;;;;;5075465;28;20040;-63
2022/04/13 08:13:18;;;;;;;15.57;8.65;;;;;;;;;;5103167;22;20110;-62
2022/04/13 08:15:44;;;;;;;15.50;6.93;;;;;;;;;;5117807;22;20048;-63
2022/04/13 08:18:13;;;;;;;15.93;8.15;;;;;;;;;;5090641;28;20052;-63
2022/04/13 08:20:39;;;;;;;14.43;7.28;;;;;;;;;;5074286;28;20051;-62
2022/04/13 08:23:05;;;;;;;11.63;6.18;;;;;;;;;;5091309;28;20122;-63
2022/04/13 08:25:31;;;;;;;15.30;7.45;;;;;;;;;;5096776;28;20097;-62
2022/04/13 08:27:57;;;;;;;12.13;7.03;;;;;;;;;;5071180;28;20052;-62
2022/04/13 08:30:25;;;;;;;16.20;9.27;;;;;;;;;;5096346;28;20052;-62
2022/04/13 08:32:51;;;;;;;18.63;7.70;;;;;;;;;;5099834;28;20051;-62
2022/04/13 08:35:17;;;;;;;16.50;7.85;;;;;;;;;;5119155;22;20026;-62
2022/04/13 08:37:43;;;;;;;16.27;7.43;;;;;;;;;;5098405;22;20523;-62
2022/04/13 08:40:10;;;;;;;16.60;7.78;;;;;;;;;;5074261;28;20059;-61
2022/04/13 08:42:45;;;;;;;16.30;7.13;;;;;;;;;;5060204;28;20076;-62
2022/04/13 08:45:14;;;;;;;13.32;6.53;;;;;;;;;;5093218;28;20047;-63
2022/04/13 08:47:43;;;;;;;16.02;7.68;;;;;;;;;;5112789;28;20048;-62
2022/04/13 08:50:10;;;;;;;14.02;7.13;;;;;;;;;;5052351;28;20090;-62
2022/04/13 08:52:38;;;;;;;16.15;7.20;;;16.60;99.90;;;;;;5091832;28;20090;-62
2022/04/13 08:55:05;;;;;;;16.75;7.68;;;17.10;99.90;;;;;;5074262;28;20048;-62
2022/04/13 08:57:40;;;;;;;13.88;6.95;;;17.20;99.90;;;;;;5102327;28;20118;-62
2022/04/13 09:00:18;;;;;;;14.57;6.13;;;17.30;99.90;;;;;;5075813;28;20563;-62
2022/04/13 09:03:03;;;;;;;15.02;6.38;;;17.20;99.90;;;;;;5073403;28;20047;-62
2022/04/13 09:05:32;;;;;;;16.77;6.32;;;17.20;99.90;;;;;;5074627;28;20051;-62
2022/04/13 09:07:58;;;;;;;15.00;6.00;;;17.30;99.90;;;;;;5057420;28;20128;-62
2022/04/13 09:10:25;;;;;;;13.38;5.47;;;17.70;99.90;;;;;;5078078;28;20083;-68
2022/04/13 09:12:52;;;;;;;16.08;5.60;;;17.50;99.90;;;;;;5062359;28;20052;-67
2022/04/13 09:15:21;;;;;;;;;;;17.50;99.90;;;;;;5065742;28;20090;-68
2022/04/13 09:17:47;;;;;;;17.40;6.00;;;;;;;;;;5092704;28;19971;-68
2022/04/13 09:20:14;;;;;;;12.07;5.30;;;18.00;99.90;;;;;;5095357;28;20562;-65
2022/04/13 09:22:42;;;;;;;9.13;4.60;;;17.90;99.90;;;;;;5095463;28;20052;-65
2022/04/13 09:25:09;;;;;;;11.10;4.50;;;17.90;99.90;;;;;;5096130;28;20496;-67
2022/04/13 09:27:37;;;;;;;8.25;4.40;;;17.90;99.90;;;;;;5111256;28;20043;-69
2022/04/13 09:30:03;;;;;;;14.30;4.90;;;18.10;99.90;;;;;;5115723;28;20078;-70
2022/04/13 09:32:30;;;;;;;11.00;5.72;;;18.30;99.90;;;;;;5080303;28;20051;-70
2022/04/13 09:34:56;;;;;;;13.55;5.45;;;18.30;99.90;;;;;;5064912;28;20047;-67
2022/04/13 09:37:22;;;;;;;12.57;4.95;;;;;;;;;;5112318;28;20124;-70
2022/04/13 09:39:49;;;;;;;11.13;5.30;;;;;;;;;;5111914;28;20096;-68
2022/04/13 09:42:15;;;;;;;11.40;5.20;;;;;;;;;;5095644;28;20050;-66
2022/04/13 09:44:41;;;;;;;8.98;4.53;;;;;;;;;;5114907;28;20093;-67
2022/04/13 09:47:08;;;;;;;11.85;5.10;;;;;;;;;;5111686;28;20062;-67
2022/04/13 09:49:34;;;;;;;13.40;5.22;;;;;;;;;;5114849;28;20047;-70
2022/04/13 09:52:01;;;;;;;9.30;4.63;;;;;;;;;;5115226;28;20101;-65
2022/04/13 09:54:27;;;;;;;15.23;5.18;;;18.50;99.90;;;;;;5114821;28;20050;-68
2022/04/13 09:56:53;;;;;;;14.80;5.18;;;;;;;;;;5079830;28;20047;-66
2022/04/13 09:59:29;;;;;;;14.55;5.13;;;;;;;;;;5114562;28;20059;-64
2022/04/13 10:01:56;;;;;;;12.48;5.00;;;;;;;;;;5111669;28;20043;-68
2022/04/13 10:04:26;;;;;;;9.85;5.10;;;;;;;;;;5076614;28;20066;-68
2022/04/13 10:06:52;;;;;;;11.20;6.30;;;;;;;;;;5094386;28;20048;-64
2022/04/13 10:09:21;;;;;;;12.77;5.10;;;;;;;;;;5113826;28;20065;-67
2022/04/13 10:12:03;;;;;;;14.15;5.70;;;;;;;;;;5114631;28;20476;-63
2022/04/13 10:14:32;;;;;;;15.95;5.45;;;;;;;;;;5114767;28;20079;-63
2022/04/13 10:17:20;;;;;;;9.25;3.88;;;;;;;;;;5107950;28;20507;-66
2022/04/13 10:19:55;;;;;;;14.57;7.38;;;18.60;99.90;;;;;;5091623;28;20408;-70
2022/04/13 10:22:21;;;;;;;9.80;4.95;;;;;;;;;;5114497;28;20051;-66
2022/04/13 10:24:47;;;;;;;14.63;6.47;;;;;;;;;;5114527;28;20141;-63
2022/04/13 10:27:20;;;;;;;17.55;8.27;;;18.50;99.90;;;;;;5105338;28;20483;-68
2022/04/13 10:29:47;;;;;;;14.80;7.68;;;;;;;;;;5082118;28;20052;-64
2022/04/13 10:32:13;;;;;;;17.73;7.32;;;;;;;;;;5106531;28;20032;-65
2022/04/13 10:34:40;;;;;;;14.85;8.48;;;;;;;;;;5100977;28;20047;-68
2022/04/13 10:37:07;;;;;;;19.45;9.07;;;;;;;;;;5093401;28;20056;-67
2022/04/13 10:39:33;;;;;;;13.45;6.90;;;;;;;;;;5082109;28;20506;-60
2022/04/13 10:41:59;;;;;;;15.30;7.97;;;;;;;;;;5095876;28;20078;-60
2022/04/13 10:44:34;;;;;;;17.48;8.40;;;;;;;;;;5113758;28;20046;-60
2022/04/13 10:47:07;;;;;;;16.35;7.57;;;;;;;;;;5107436;28;20032;-60
2022/04/13 10:49:45;;;;;;;18.50;8.05;;;;;;;;;;5087818;28;20040;-60
2022/04/13 10:52:23;;;;;;;15.00;8.00;;;17.70;99.90;;;;;;5081454;28;20060;-59
2022/04/13 10:54:50;;;;;;;18.00;7.95;;;;;;;;;;5042416;28;20079;-60
2022/04/13 10:57:17;;;;;;;13.45;6.72;;;;;;;;;;5089616;28;20055;-60
2022/04/13 10:59:52;;;;;;;15.80;6.60;;;;;;;;;;5062091;28;20125;-60
2022/04/13 11:02:27;;;;;;;17.33;6.18;;;17.70;99.90;;;;;;5113767;28;20483;-60
2022/04/13 11:04:53;;;;;;;17.13;6.43;;;;;;;;;;5077826;28;20518;-60
2022/04/13 11:07:20;;;;;;;12.05;5.47;;;;;;;;;;5084638;28;20083;-59
2022/04/13 11:09:46;;;;;;;12.25;5.57;;;;;;;;;;5090020;28;20047;-59
2022/04/13 11:12:12;;;;;;;20.67;6.07;;;;;;;;;;5079663;28;20098;-60
2022/04/13 11:14:55;;;;;;;12.50;4.95;;;;;;;;;;5093356;28;20128;-60
2022/04/13 11:17:25;;;;;;;13.20;5.40;;;;;;;;;;5109960;28;20047;-60
2022/04/13 11:19:51;;;;;;;9.70;5.68;;;;;;;;;;5094708;28;20044;-59
2022/04/13 11:22:17;;;;;;;16.02;6.80;;;;;;;;;;5095168;28;20048;-59
2022/04/13 11:24:46;;;;;;;13.07;5.90;;;;;;;;;;5095109;28;20048;-59
2022/04/13 11:27:12;;;;;;;13.48;6.45;;;;;;;;;;5091107;28;20476;-59
2022/04/13 11:29:58;;;;;;;17.73;6.60;;;;;;;;;;5113179;28;20503;-59
2022/04/13 11:32:31;;;;;;;12.63;6.38;;;;;;;;;;5113245;28;20043;-59
2022/04/13 11:34:58;;;;;;;17.00;6.35;;;;;;;;;;5113533;28;20112;-59
2022/04/13 11:37:34;;;;;;;18.50;6.72;;;;;;;;;;5094969;28;20549;-60
2022/04/13 11:40:05;;;;;;;17.00;8.18;;;;;;;;;;5091250;28;20047;-60
2022/04/13 11:42:40;;;;;;;12.32;5.68;;;;;;;;;;5072631;28;20489;-59
2022/04/13 11:45:06;;;;;;;12.20;5.93;;;;;;;;;;5073688;28;20442;-60
2022/04/13 11:47:40;;;;;;;20.40;6.07;;;;;;;;;;5087325;28;20077;-59
2022/04/13 11:50:12;;;;;;;13.70;5.90;;;;;;;;;;5093169;28;20072;-59
2022/04/13 11:52:48;;;;;;;16.85;6.55;;;;;;;;;;5092139;28;20043;-60
2022/04/13 11:55:15;;;;;;;15.82;6.63;;;;;;;;;;5058082;28;20051;-60
2022/04/13 11:57:51;;;;;;;13.65;6.22;;;;;;;;;;5080542;28;20052;-59
2022/04/13 12:00:38;;;;;;;18.00;6.97;;;16.90;99.90;;;;;;5089842;28;20047;-59
2022/04/13 12:03:06;;;;;;;15.02;6.50;;;;;;;;;;5092189;28;20058;-60
2022/04/13 12:05:33;;;;;;;16.63;6.40;;;;;;;;;;5078418;28;20519;-59
2022/04/13 12:07:59;;;;;;;12.18;6.63;;;;;;;;;;5074183;28;20082;-59
2022/04/13 12:10:25;;;;;;;18.50;5.90;;;;;;;;;;5038248;28;20146;-59
2022/04/13 12:13:02;;;;;;;15.82;6.50;;;;;;;;;;5093525;28;20036;-59
2022/04/13 12:15:28;;;;;;;16.50;6.20;;;;;;;;;;5107232;28;20047;-59
2022/04/13 12:17:55;;;;;;;16.00;6.78;;;;;;;;;;5092389;28;20044;-59
2022/04/13 12:20:27;;;;;;;12.57;5.90;;;;;;;;;;5097548;28;20049;-60
2022/04/13 12:22:54;;;;;;;15.20;5.47;;;;;;;;;;5086949;28;20040;-60
2022/04/13 12:25:20;;;;;;;15.77;6.43;;;;;;;;;;5086919;28;20051;-60
2022/04/13 12:28:02;;;;;;;14.52;6.28;;;;;;;;;;5092384;28;20052;-59
2022/04/13 12:30:28;;;;;;;15.65;6.28;;;;;;;;;;5083906;28;20051;-63
2022/04/13 12:32:54;;;;;;;19.50;7.22;;;;;;;;;;5074821;28;20043;-64
2022/04/13 12:35:20;;;;;;;73.80;8.95;;;;;;;;;;5076901;28;20108;-64
2022/04/13 12:37:51;;;;;;;16.05;7.63;;;;;;;;;;5054323;28;20083;-65
2022/04/13 12:40:24;;;;;;;;;;;16.20;99.90;;;;;;5073695;28;20503;-65
2022/04/13 12:42:52;;;;;;;21.63;7.40;;;;;;;;;;5069899;28;20432;-65
2022/04/13 12:45:19;;;;;;;18.08;7.03;;;;;;;;;;5077855;28;20043;-65
2022/04/13 12:47:46;;;;;;;15.63;7.10;;;;;;;;;;5078126;28;20052;-64
2022/04/13 12:50:15;;;;;;;16.52;7.43;;;;;;;;;;5095324;28;20052;-65
2022/04/13 12:52:44;;;;;;;18.98;7.75;;;;;;;;;;5085252;28;20086;-65
2022/04/13 12:55:10;;;;;;;20.70;8.13;;;;;;;;;;5115897;28;20538;-65
2022/04/13 12:57:41;;;;;;;18.83;6.75;;;;;;;;;;5081086;28;20071;-65
2022/04/13 13:03:32;;;;;;;19.35;7.25;;;16.90;99.90;;;;;;5099527;22;20139;-65
2022/04/13 13:06:05;;;;;;;17.75;6.10;;;;;;;;;;5035659;28;20049;-64
2022/04/13 13:08:31;;;;;;;16.08;7.60;;;;;;;;;;5037863;28;20094;-65
2022/04/13 13:10:58;;;;;;;14.85;7.15;;;;;;;;;;5037611;28;20045;-65
2022/04/13 13:13:25;;;;;;;20.38;6.38;;;;;;;;;;5020959;28;20045;-65
2022/04/13 13:15:54;;;;;;;15.68;6.40;;;;;;;;;;5021241;28;20128;-65
2022/04/13 13:18:20;;;;;;;14.02;5.57;;;;;;;;;;5054969;28;20037;-65
2022/04/13 13:20:59;;;;;;;14.07;5.38;;;;;;;;;;5037209;28;20053;-65
2022/04/13 13:23:26;;;;;;;11.95;5.15;;;;;;;;;;5036595;28;20151;-65
2022/04/13 13:25:52;;;;;;;13.63;4.90;;;;;;;;;;5037084;28;20091;-65
2022/04/13 13:28:23;;;;;;;13.55;5.30;;;18.00;99.90;;;;;;5036124;28;20085;-64
2022/04/13 13:30:54;;;;;;;17.88;5.72;;;18.20;99.90;;;;;;5036412;28;20056;-64
2022/04/13 13:33:20;;;;;;;14.27;5.60;;;;;;;;;;5054438;28;20048;-65
2022/04/13 13:35:46;;;;;;;11.63;4.57;;;;;;;;;;5054909;28;20059;-65
2022/04/13 13:38:19;;;;;;;13.40;4.68;;;;;;;;;;5054846;28;20041;-65
2022/04/13 13:40:48;;;;;;;12.73;4.40;;;;;;;;;;5054842;28;20102;-66
2022/04/13 13:43:26;;;;;;;13.25;4.28;;;;;;;;;;5020517;28;20390;-66
2022/04/13 13:45:53;;;;;;;13.65;4.28;;;;;;;;;;5054444;28;20116;-66
2022/04/13 13:48:21;;;;;;;8.88;3.53;;;;;;;;;;5037163;28;20044;-66
2022/04/13 13:50:51;;;;;;;10.73;3.50;;;;;;;;;;5053697;28;20379;-66
2022/04/13 13:53:18;;;;;;;10.77;3.38;;;;;;;;;;5020152;28;20097;-66
2022/04/13 13:55:50;;;;;;;10.10;3.63;;;18.30;99.90;;;;;;5036689;28;20088;-66
2022/04/13 13:58:16;;;;;;;9.05;3.50;;;;;;;;;;5020305;28;20060;-66
2022/04/13 14:00:45;;;;;;;16.33;3.50;;;;;;;;;;5054648;28;20052;-67
2022/04/13 14:03:15;;;;;;;10.80;3.05;;;;;;;;;;5036900;28;20068;-66
2022/04/13 14:05:42;;;;;;;9.05;2.97;;;;;;;;;;5034774;28;20493;-66
2022/04/13 14:08:10;;;;;;;12.32;3.30;;;;;;;;;;5035474;28;20044;-66
2022/04/13 14:10:36;;;;;;;11.70;2.95;;;;;;;;;;5053873;28;20087;-66
2022/04/13 14:13:03;;;;;;;9.63;2.85;;;;;;;;;;5052036;28;20049;-65
2022/04/13 14:15:29;;;;;;;10.30;2.63;;;;;;;;;;5015313;28;20047;-65
2022/04/13 14:17:55;;;;;;;10.60;2.53;;;;;;;;;;5036458;28;20076;-66
2022/04/13 14:20:21;;;;;;;10.75;3.42;;;;;;;;;;5019351;28;20106;-65